Terminal Aerodrome Forecast
Issued by NWS

Home | Current Version | Previous Version | Text Only | Print | Product List | Glossary On
Versions: 1 2 3 4 5 6 7 8 9 10 11 12 13 14 15 16 17 18 19 20 21 22 23 24 25 26 27 28 29 30
000
FTUS45 KRIW 041100
TAFPNA
TAF
KPNA 041123Z 0412/0512 30008KT P6SM FEW050
     FM041800 30014G24KT 4SM BLSN FEW050
     FM042300 30012G18KT P6SM SCT250
     FM050200 30008KT P6SM SCT200
      AMD LTD TO CLD VIS AND WIND=

USA.gov is the U.S. government's official web portal to all federal, state and local government web resources and services.